createdAt,value
2017-09-25T00:02:12.083Z,99.90
2017-09-25T00:04:39.918Z,99.90
2017-09-25T00:07:08.527Z,99.90
2017-09-25T00:09:36.293Z,99.90
2017-09-25T00:12:04.103Z,99.90
2017-09-25T00:14:31.873Z,99.90
2017-09-25T00:17:00.214Z,99.90
2017-09-25T00:19:27.984Z,99.90
2017-09-25T00:21:55.738Z,99.90
2017-09-25T00:24:23.540Z,99.90
2017-09-25T00:26:51.313Z,99.90
2017-09-25T00:29:19.123Z,99.90
2017-09-25T00:31:46.894Z,99.90
2017-09-25T00:34:14.963Z,99.90
2017-09-25T00:36:42.769Z,99.90
2017-09-25T00:39:10.533Z,99.90
2017-09-25T00:41:38.382Z,99.90
2017-09-25T00:44:06.141Z,99.90
2017-09-25T00:46:33.898Z,99.90
2017-09-25T00:49:01.692Z,99.90
2017-09-25T00:51:29.473Z,99.90
2017-09-25T00:53:58.107Z,99.90
2017-09-25T00:56:25.883Z,99.90
2017-09-25T00:58:53.687Z,99.90
2017-09-25T01:01:21.516Z,99.90
2017-09-25T01:03:54.283Z,99.90
2017-09-25T01:06:25.884Z,99.90
2017-09-25T01:08:53.646Z,99.90
2017-09-25T01:11:21.459Z,99.90
2017-09-25T01:13:49.241Z,99.90
2017-09-25T01:16:17.007Z,99.90
2017-09-25T01:18:44.801Z,99.90
2017-09-25T01:21:12.572Z,99.90
2017-09-25T01:23:41.586Z,99.90
2017-09-25T01:26:09.379Z,99.90
2017-09-25T01:28:37.143Z,99.90
2017-09-25T01:31:04.948Z,99.90
2017-09-25T01:33:32.718Z,99.90
2017-09-25T01:36:01.315Z,99.90
2017-09-25T01:38:29.919Z,99.90
2017-09-25T01:40:57.676Z,99.90
2017-09-25T01:43:25.461Z,99.90
2017-09-25T01:45:53.223Z,99.90
2017-09-25T01:48:21.039Z,99.90
2017-09-25T01:50:48.800Z,99.90
2017-09-25T01:53:17.322Z,99.90
2017-09-25T01:55:45.123Z,99.90
2017-09-25T01:58:13.663Z,99.90
2017-09-25T02:00:41.484Z,99.90
2017-09-25T02:03:09.251Z,99.90
2017-09-25T02:05:37.026Z,99.90
2017-09-25T02:08:05.592Z,99.90
2017-09-25T02:10:33.383Z,99.90
2017-09-25T02:13:01.211Z,99.90
2017-09-25T02:15:29.732Z,99.90
2017-09-25T02:17:57.490Z,99.90
2017-09-25T02:20:25.294Z,99.90
2017-09-25T02:22:53.074Z,99.90
2017-09-25T02:25:21.657Z,99.90
2017-09-25T02:27:50.185Z,99.90
2017-09-25T02:30:17.964Z,99.90
2017-09-25T02:32:45.776Z,99.90
2017-09-25T02:35:13.542Z,99.90
2017-09-25T02:37:41.376Z,99.90
2017-09-25T02:40:09.924Z,99.90
2017-09-25T02:42:37.690Z,99.90
2017-09-25T02:45:05.503Z,99.90
2017-09-25T02:47:33.286Z,99.90
2017-09-25T02:50:01.124Z,99.90
2017-09-25T02:52:28.896Z,99.90
2017-09-25T02:54:56.652Z,99.90
2017-09-25T02:57:24.444Z,99.90
2017-09-25T02:59:52.217Z,99.90
2017-09-25T03:02:20.041Z,99.90
2017-09-25T03:04:47.812Z,99.90
2017-09-25T03:07:15.588Z,99.90
2017-09-25T03:09:43.413Z,99.90
2017-09-25T03:12:11.188Z,99.90
2017-09-25T03:14:39.010Z,99.90
2017-09-25T03:17:06.800Z,99.90
2017-09-25T03:19:35.335Z,99.90
2017-09-25T03:22:03.182Z,99.90
2017-09-25T03:24:30.956Z,99.90
2017-09-25T03:26:58.809Z,99.90
2017-09-25T03:29:26.576Z,99.90
2017-09-25T03:31:54.343Z,99.90
2017-09-25T03:34:22.137Z,99.90
2017-09-25T03:36:50.671Z,99.90
2017-09-25T03:39:18.516Z,99.90
2017-09-25T03:41:46.289Z,99.90
2017-09-25T03:44:14.060Z,99.90
2017-09-25T03:46:41.859Z,99.90
2017-09-25T03:49:09.645Z,99.90
2017-09-25T03:51:38.239Z,99.90
2017-09-25T03:54:06.020Z,99.90
2017-09-25T03:56:33.786Z,99.90
2017-09-25T03:59:01.584Z,99.90
2017-09-25T04:01:29.352Z,99.90
2017-09-25T04:03:57.176Z,99.90
2017-09-25T04:06:24.943Z,99.90
2017-09-25T04:08:52.722Z,99.90
2017-09-25T04:11:20.622Z,99.90
2017-09-25T04:13:49.165Z,99.90
2017-09-25T04:16:16.998Z,99.90
2017-09-25T04:18:44.768Z,99.90
2017-09-25T04:21:12.518Z,99.90
2017-09-25T04:23:40.384Z,99.90
2017-09-25T04:26:08.175Z,99.90
2017-09-25T04:28:36.013Z,99.90
2017-09-25T04:31:03.790Z,99.90
2017-09-25T04:33:31.561Z,99.90
2017-09-25T04:35:59.369Z,99.90
2017-09-25T04:38:27.913Z,99.90
2017-09-25T04:40:55.744Z,99.90
2017-09-25T04:43:23.521Z,99.90
2017-09-25T04:45:51.299Z,99.90
2017-09-25T04:48:19.120Z,99.90
2017-09-25T04:50:46.888Z,99.90
2017-09-25T04:53:15.493Z,99.90
2017-09-25T04:55:43.248Z,99.90
2017-09-25T04:58:11.025Z,99.90
2017-09-25T05:00:38.819Z,99.90
2017-09-25T05:03:07.360Z,99.90
2017-09-25T05:05:35.188Z,99.90
2017-09-25T05:08:02.965Z,99.90
2017-09-25T05:10:30.720Z,99.90
2017-09-25T05:12:58.507Z,99.90
2017-09-25T05:15:27.267Z,99.90
2017-09-25T05:17:55.079Z,99.90
2017-09-25T05:20:22.844Z,99.90
2017-09-25T05:22:50.612Z,99.90
2017-09-25T05:25:19.167Z,99.90
2017-09-25T05:27:46.922Z,99.90
2017-09-25T05:30:14.745Z,99.90
2017-09-25T05:32:42.520Z,99.90
2017-09-25T05:35:10.323Z,99.90
2017-09-25T05:37:38.120Z,99.90
2017-09-25T05:40:06.640Z,99.90
2017-09-25T05:42:34.467Z,99.90
2017-09-25T05:45:02.245Z,99.90
2017-09-25T05:47:30.013Z,99.90
2017-09-25T05:49:57.819Z,99.90
2017-09-25T05:52:25.585Z,99.90
2017-09-25T05:54:53.421Z,99.90
2017-09-25T05:57:21.332Z,99.90
2017-09-25T05:59:49.860Z,99.90
2017-09-25T06:02:17.646Z,99.90
2017-09-25T06:04:45.413Z,99.90
2017-09-25T06:07:13.244Z,99.90
2017-09-25T06:09:41.005Z,99.90
2017-09-25T06:12:08.771Z,99.90
2017-09-25T06:14:36.571Z,99.90
2017-09-25T06:17:04.336Z,99.90
2017-09-25T06:19:32.924Z,99.90
2017-09-25T06:22:01.458Z,99.90
2017-09-25T06:24:29.269Z,99.90
2017-09-25T06:26:57.851Z,99.90
2017-09-25T06:29:26.384Z,99.90
2017-09-25T06:31:54.167Z,99.90
2017-09-25T06:34:21.920Z,99.90
2017-09-25T06:36:49.738Z,99.90
2017-09-25T06:39:17.486Z,99.90
2017-09-25T06:41:45.248Z,99.90
2017-09-25T06:44:13.066Z,99.90
2017-09-25T06:46:40.823Z,99.90
2017-09-25T06:49:08.646Z,99.90
2017-09-25T06:51:36.409Z,99.90
2017-09-25T06:54:04.186Z,99.90
2017-09-25T06:56:31.994Z,99.90
2017-09-25T06:58:59.790Z,99.90
2017-09-25T07:01:27.660Z,99.90
2017-09-25T07:03:55.449Z,99.90
2017-09-25T07:06:23.214Z,99.90
2017-09-25T07:08:51.067Z,99.90
2017-09-25T07:11:18.852Z,99.90
2017-09-25T07:13:46.674Z,99.90
2017-09-25T07:16:14.464Z,99.90
2017-09-25T07:18:42.231Z,99.90
2017-09-25T07:21:10.033Z,99.90
2017-09-25T07:23:38.583Z,99.90
2017-09-25T07:26:06.446Z,99.90
2017-09-25T07:28:34.246Z,99.90
2017-09-25T07:31:02.927Z,99.90
2017-09-25T07:33:30.742Z,99.90
2017-09-25T07:35:58.519Z,99.90
2017-09-25T07:38:26.375Z,99.90
2017-09-25T07:40:54.144Z,99.90
2017-09-25T07:43:21.903Z,99.90
2017-09-25T07:45:49.713Z,99.90
2017-09-25T07:48:17.488Z,99.90
2017-09-25T07:50:45.346Z,99.90
2017-09-25T07:53:13.122Z,99.90
2017-09-25T07:55:40.904Z,99.90
2017-09-25T07:58:08.712Z,99.90
2017-09-25T08:00:37.262Z,99.90
2017-09-25T08:03:05.084Z,99.90
2017-09-25T08:05:32.859Z,99.90
2017-09-25T08:08:00.620Z,99.90
2017-09-25T08:10:28.427Z,99.90
2017-09-25T08:12:56.986Z,99.90
2017-09-25T08:15:24.816Z,99.90
2017-09-25T08:17:52.589Z,97.90
2017-09-25T08:20:21.173Z,84.50
2017-09-25T08:22:48.976Z,84.80
2017-09-25T08:25:17.519Z,95.50
2017-09-25T08:27:45.353Z,95.50
2017-09-25T08:30:13.114Z,95.90
2017-09-25T08:32:40.892Z,96.50
2017-09-25T08:35:08.711Z,92.80
2017-09-25T08:37:37.299Z,82.30
2017-09-25T08:40:05.895Z,83.80
2017-09-25T08:42:33.664Z,83.80
2017-09-25T08:45:01.422Z,93.00
2017-09-25T08:47:29.238Z,94.50
2017-09-25T08:49:57.015Z,93.30
2017-09-25T08:52:25.611Z,90.80
2017-09-25T08:54:54.150Z,90.60
2017-09-25T08:57:21.904Z,90.60
2017-09-25T08:59:49.705Z,91.00
2017-09-25T09:02:18.236Z,77.60
2017-09-25T09:04:46.059Z,77.70
2017-09-25T09:07:13.836Z,85.90
2017-09-25T09:09:41.614Z,92.20
2017-09-25T09:12:09.412Z,93.30
2017-09-25T09:14:37.180Z,94.00
2017-09-25T09:17:05.024Z,91.40
2017-09-25T09:19:32.796Z,92.10
2017-09-25T09:22:00.581Z,92.70
2017-09-25T09:24:29.558Z,94.90
2017-09-25T09:26:57.322Z,94.90
2017-09-25T09:29:25.153Z,96.90
2017-09-25T09:31:52.928Z,95.50
2017-09-25T09:34:20.697Z,95.60
2017-09-25T09:36:48.504Z,95.40
2017-09-25T09:39:16.280Z,94.80
2017-09-25T09:41:44.288Z,92.90
2017-09-25T09:44:12.059Z,92.50
2017-09-25T09:46:39.828Z,91.50
2017-09-25T09:49:08.401Z,91.30
2017-09-25T09:51:36.168Z,91.30
2017-09-25T09:54:03.992Z,90.80
2017-09-25T09:56:31.777Z,88.60
2017-09-25T09:58:59.564Z,91.10
2017-09-25T10:01:28.128Z,92.00
2017-09-25T10:03:55.916Z,92.00
2017-09-25T10:06:24.517Z,92.10
2017-09-25T10:08:52.300Z,92.00
2017-09-25T10:11:20.064Z,92.40
2017-09-25T10:13:47.877Z,92.30
2017-09-25T10:16:16.415Z,95.10
2017-09-25T10:18:44.280Z,95.00
2017-09-25T10:21:12.056Z,92.40
2017-09-25T10:23:39.824Z,92.30
2017-09-25T10:26:07.633Z,94.00
2017-09-25T10:28:35.403Z,92.10
2017-09-25T10:31:03.244Z,89.10
2017-09-25T10:33:31.784Z,91.10
2017-09-25T10:35:59.563Z,91.00
2017-09-25T10:38:27.391Z,90.00
2017-09-25T10:40:55.163Z,87.40
2017-09-25T10:43:22.988Z,89.40
2017-09-25T10:45:50.764Z,90.40
2017-09-25T10:48:18.538Z,90.10
2017-09-25T10:50:46.344Z,90.60
2017-09-25T10:53:14.880Z,91.90
2017-09-25T10:55:42.713Z,91.90
2017-09-25T10:58:10.486Z,91.70
2017-09-25T11:00:38.269Z,91.70
2017-09-25T11:03:06.075Z,91.60
2017-09-25T11:05:33.840Z,91.40
2017-09-25T11:08:02.439Z,93.70
2017-09-25T11:10:30.249Z,93.60
2017-09-25T11:12:58.029Z,91.80
2017-09-25T11:15:25.833Z,93.00
2017-09-25T11:17:53.602Z,92.00
2017-09-25T11:20:21.463Z,91.60
2017-09-25T11:22:49.225Z,91.10
2017-09-25T11:25:16.989Z,91.40
2017-09-25T11:27:44.799Z,91.50
2017-09-25T11:30:12.572Z,90.70
2017-09-25T11:32:41.165Z,91.60
2017-09-25T11:35:09.709Z,91.40
2017-09-25T11:37:37.479Z,91.40
2017-09-25T11:40:05.291Z,93.10
2017-09-25T11:42:33.061Z,91.80
2017-09-25T11:45:00.885Z,91.00
2017-09-25T11:47:29.420Z,87.10
2017-09-25T11:49:57.200Z,87.10
2017-09-25T11:52:25.032Z,90.30
2017-09-25T11:54:52.812Z,86.50
2017-09-25T11:57:20.585Z,84.00
2017-09-25T11:59:48.389Z,91.00
2017-09-25T12:02:16.950Z,83.30
2017-09-25T12:04:45.504Z,86.40
2017-09-25T12:07:13.792Z,85.60
2017-09-25T12:09:41.572Z,87.30
2017-09-25T12:12:10.114Z,88.60
2017-09-25T12:14:37.929Z,88.60
2017-09-25T12:17:06.475Z,88.40
2017-09-25T12:19:34.313Z,88.30
2017-09-25T12:22:02.092Z,87.50
2017-09-25T12:24:29.866Z,87.40
2017-09-25T12:26:57.677Z,91.10
2017-09-25T12:29:25.452Z,88.70
2017-09-25T12:31:54.051Z,88.20
2017-09-25T12:34:21.832Z,88.20
2017-09-25T12:36:49.607Z,86.90
2017-09-25T12:39:17.424Z,85.60
2017-09-25T12:41:45.201Z,83.20
2017-09-25T12:44:13.069Z,87.70
2017-09-25T12:46:40.864Z,88.50
2017-09-25T12:49:09.418Z,90.10
2017-09-25T12:51:37.224Z,90.10
2017-09-25T12:54:05.770Z,91.30
2017-09-25T12:56:33.616Z,91.30
2017-09-25T12:59:01.403Z,92.80
2017-09-25T13:01:29.172Z,93.10
2017-09-25T13:03:57.745Z,94.40
2017-09-25T13:06:25.516Z,94.10
2017-09-25T13:08:54.131Z,93.00
2017-09-25T13:11:21.897Z,92.60
2017-09-25T13:13:49.705Z,92.80
2017-09-25T13:16:17.515Z,93.90
2017-09-25T13:18:45.293Z,90.90
2017-09-25T13:21:13.123Z,92.40
2017-09-25T13:23:41.659Z,93.50
2017-09-25T13:26:09.469Z,93.40
2017-09-25T13:28:37.293Z,93.00
2017-09-25T13:31:05.072Z,93.50
2017-09-25T13:33:33.669Z,94.80
2017-09-25T13:36:02.224Z,94.60
2017-09-25T13:38:29.993Z,94.50
2017-09-25T13:40:57.791Z,94.30
2017-09-25T13:43:25.568Z,94.60
2017-09-25T13:45:53.395Z,94.40
2017-09-25T13:48:21.932Z,94.40
2017-09-25T13:50:49.706Z,94.40
2017-09-25T13:53:17.516Z,94.50
2017-09-25T13:55:45.297Z,94.50
2017-09-25T13:58:13.128Z,93.90
2017-09-25T14:03:14.628Z,94.30
2017-09-25T14:05:42.413Z,94.10
2017-09-25T14:08:10.189Z,93.70
2017-09-25T14:10:37.985Z,94.40
2017-09-25T14:13:05.781Z,94.10
2017-09-25T14:15:33.625Z,94.30
2017-09-25T14:18:01.418Z,95.00
2017-09-25T14:20:29.195Z,94.60
2017-09-25T14:22:57.008Z,94.70
2017-09-25T14:25:24.776Z,94.70
2017-09-25T14:27:52.608Z,94.80
2017-09-25T14:30:21.146Z,95.60
2017-09-25T14:32:48.928Z,95.60
2017-09-25T14:35:16.802Z,93.70
2017-09-25T14:37:44.571Z,94.10
2017-09-25T14:40:13.172Z,94.90
2017-09-25T14:42:41.700Z,94.50
2017-09-25T14:45:09.471Z,94.50
2017-09-25T14:47:37.344Z,94.70
2017-09-25T14:50:05.126Z,95.20
2017-09-25T14:52:33.735Z,95.50
2017-09-25T14:55:01.512Z,95.50
2017-09-25T14:57:29.281Z,96.00
2017-09-25T14:59:57.095Z,95.50
2017-09-25T15:02:25.648Z,94.90
2017-09-25T15:04:53.490Z,94.90
2017-09-25T15:07:21.273Z,95.00
2017-09-25T15:09:49.050Z,94.80
2017-09-25T15:12:17.637Z,95.50
2017-09-25T15:14:46.173Z,95.40
2017-09-25T15:17:14.001Z,95.30
2017-09-25T15:19:41.772Z,95.60
2017-09-25T15:22:09.532Z,97.30
2017-09-25T15:24:37.337Z,96.30
2017-09-25T15:27:05.107Z,95.90
2017-09-25T15:29:32.935Z,96.10
2017-09-25T15:32:00.703Z,96.60
2017-09-25T15:34:28.473Z,97.00
2017-09-25T15:36:56.280Z,97.00
2017-09-25T15:39:24.816Z,97.40
2017-09-25T15:41:53.560Z,97.50
2017-09-25T15:44:21.502Z,97.80
2017-09-25T15:46:49.302Z,98.00
2017-09-25T15:49:17.107Z,97.90
2017-09-25T15:51:44.899Z,98.70
2017-09-25T15:54:12.768Z,99.10
2017-09-25T15:56:41.322Z,98.60
2017-09-25T15:59:09.176Z,98.50
2017-09-25T16:01:37.002Z,98.40
2017-09-25T16:04:04.813Z,99.20
2017-09-25T16:06:32.639Z,98.70
2017-09-25T16:09:00.425Z,98.90
2017-09-25T16:11:28.191Z,99.40
2017-09-25T16:13:55.988Z,99.40
2017-09-25T16:16:25.339Z,99.90
2017-09-25T16:18:53.176Z,99.90
2017-09-25T16:21:20.966Z,99.90
2017-09-25T16:23:48.734Z,99.90
2017-09-25T16:26:16.552Z,99.90
2017-09-25T16:28:44.317Z,99.90
2017-09-25T16:31:12.150Z,99.90
2017-09-25T16:33:39.924Z,99.90
2017-09-25T16:36:08.488Z,99.90
2017-09-25T16:38:36.297Z,99.90
2017-09-25T16:41:04.091Z,99.90
2017-09-25T16:43:31.934Z,99.90
2017-09-25T16:45:59.733Z,99.90
2017-09-25T16:48:27.509Z,99.90
2017-09-25T16:50:56.913Z,99.90
2017-09-25T16:53:25.452Z,99.90
2017-09-25T16:55:53.281Z,99.90
2017-09-25T16:58:21.048Z,99.90
2017-09-25T17:00:48.816Z,99.90
2017-09-25T17:03:16.633Z,99.90
2017-09-25T17:05:45.177Z,99.90
2017-09-25T17:08:13.064Z,99.90
2017-09-25T17:10:40.844Z,99.90
2017-09-25T17:13:09.399Z,99.90
2017-09-25T17:15:37.233Z,99.90
2017-09-25T17:18:05.003Z,99.90
2017-09-25T17:20:32.849Z,99.90
2017-09-25T17:23:00.673Z,99.90
2017-09-25T17:25:29.216Z,99.90
2017-09-25T17:27:57.018Z,99.90
2017-09-25T17:30:25.568Z,99.90
2017-09-25T17:32:53.407Z,99.90
2017-09-25T17:35:21.206Z,99.90
2017-09-25T17:37:49.807Z,99.90
2017-09-25T17:40:18.377Z,99.90
2017-09-25T17:42:46.145Z,99.90
2017-09-25T17:45:14.739Z,99.90
2017-09-25T17:47:43.272Z,99.90
2017-09-25T17:50:11.051Z,99.90
2017-09-25T17:52:38.864Z,99.90
2017-09-25T17:55:06.653Z,99.90
2017-09-25T17:57:34.480Z,99.90
2017-09-25T18:00:02.258Z,99.90
2017-09-25T18:02:30.043Z,99.90
2017-09-25T18:04:57.838Z,99.90
2017-09-25T18:07:26.385Z,99.90
2017-09-25T18:09:54.220Z,99.90
2017-09-25T18:12:21.997Z,99.90
2017-09-25T18:14:49.767Z,99.90
2017-09-25T18:17:17.640Z,99.90
2017-09-25T18:19:45.428Z,99.90
2017-09-25T18:22:13.267Z,99.90
2017-09-25T18:24:41.059Z,99.90
2017-09-25T18:27:09.612Z,99.90
2017-09-25T18:29:37.419Z,99.90
2017-09-25T18:32:05.194Z,99.90
2017-09-25T18:34:33.017Z,99.90
2017-09-25T18:37:00.804Z,99.90
2017-09-25T18:39:29.344Z,99.90
2017-09-25T18:41:57.150Z,99.90
2017-09-25T18:44:24.926Z,99.90
2017-09-25T18:46:52.754Z,99.90
2017-09-25T18:49:20.535Z,99.90
2017-09-25T18:51:48.311Z,99.90
2017-09-25T18:54:16.117Z,99.90
2017-09-25T18:56:43.887Z,99.90
2017-09-25T18:59:11.730Z,99.90
2017-09-25T19:01:39.534Z,99.90
2017-09-25T19:04:08.086Z,99.90
2017-09-25T19:06:35.933Z,99.90
2017-09-25T19:09:03.737Z,99.90
2017-09-25T19:11:32.329Z,99.90
2017-09-25T19:14:00.869Z,99.90
2017-09-25T19:16:28.640Z,99.90
2017-09-25T19:18:56.453Z,99.90
2017-09-25T19:21:24.275Z,99.90
2017-09-25T19:23:52.107Z,99.90
2017-09-25T19:26:19.894Z,99.90
2017-09-25T19:28:47.695Z,99.90
2017-09-25T19:31:15.501Z,99.90
2017-09-25T19:33:43.912Z,99.90
2017-09-25T19:36:12.515Z,99.90
2017-09-25T19:38:40.284Z,99.90
2017-09-25T19:41:08.184Z,99.90
2017-09-25T19:43:36.754Z,99.90
2017-09-25T19:46:04.545Z,99.90
2017-09-25T19:48:38.093Z,99.90
2017-09-25T19:51:19.671Z,99.90
2017-09-25T19:53:48.154Z,99.90
2017-09-25T19:56:16.732Z,99.90
2017-09-25T19:58:45.160Z,99.90
2017-09-25T20:01:12.971Z,99.90
2017-09-25T20:03:40.755Z,99.90
2017-09-25T20:06:08.592Z,99.90
2017-09-25T20:08:36.370Z,99.90
2017-09-25T20:11:04.633Z,99.90
2017-09-25T20:13:32.438Z,99.90
2017-09-25T20:16:06.622Z,99.90
2017-09-25T20:18:34.441Z,99.90
2017-09-25T20:21:02.993Z,99.90
2017-09-25T20:23:30.845Z,99.90
2017-09-25T20:25:58.622Z,99.90
2017-09-25T20:28:26.390Z,99.90
2017-09-25T20:30:54.183Z,99.90
2017-09-25T20:33:21.952Z,99.90
2017-09-25T20:35:50.548Z,99.90
2017-09-25T20:38:18.329Z,99.90
2017-09-25T20:40:56.090Z,99.90
2017-09-25T20:43:23.887Z,99.90
2017-09-25T20:45:51.676Z,99.90
2017-09-25T20:48:19.488Z,99.90
2017-09-25T20:50:47.255Z,99.90
2017-09-25T20:53:15.094Z,99.90
2017-09-25T20:55:43.639Z,99.90
2017-09-25T20:58:11.408Z,99.90
2017-09-25T21:00:39.203Z,99.90
2017-09-25T21:03:07.734Z,99.90
2017-09-25T21:05:35.569Z,99.90
2017-09-25T21:08:03.380Z,99.90
2017-09-25T21:10:31.941Z,99.90
2017-09-25T21:12:59.748Z,99.90
2017-09-25T21:15:28.301Z,99.90
2017-09-25T21:17:56.137Z,99.90
2017-09-25T21:20:23.923Z,99.90
2017-09-25T21:22:51.708Z,99.90
2017-09-25T21:25:20.285Z,99.90
2017-09-25T21:27:48.853Z,99.90
2017-09-25T21:30:16.682Z,99.90
2017-09-25T21:32:44.448Z,99.90
2017-09-25T21:35:12.225Z,99.90
2017-09-25T21:37:40.021Z,99.90
2017-09-25T21:40:08.555Z,99.90
2017-09-25T21:42:36.474Z,99.90
2017-09-25T21:45:04.241Z,99.90
2017-09-25T21:47:32.018Z,99.90
2017-09-25T21:49:59.853Z,99.90
2017-09-25T21:52:28.393Z,99.90
2017-09-25T21:54:56.987Z,99.90
2017-09-25T21:57:24.755Z,99.90
2017-09-25T21:59:52.530Z,99.90
2017-09-25T22:02:21.096Z,99.90
2017-09-25T22:04:48.882Z,99.90
2017-09-25T22:07:17.479Z,99.90
2017-09-25T22:09:45.257Z,99.90
2017-09-25T22:12:13.021Z,99.90
2017-09-25T22:14:40.844Z,99.90
2017-09-25T22:17:09.394Z,99.90
2017-09-25T22:19:37.211Z,99.90
2017-09-25T22:22:04.974Z,99.90
2017-09-25T22:24:32.795Z,99.90
2017-09-25T22:27:00.592Z,99.90
2017-09-25T22:29:28.364Z,99.90
2017-09-25T22:31:56.199Z,99.90
2017-09-25T22:34:24.749Z,99.90
2017-09-25T22:36:52.535Z,99.90
2017-09-25T22:39:21.107Z,99.90
2017-09-25T22:41:49.673Z,99.90
2017-09-25T22:44:23.226Z,99.90
2017-09-25T22:46:51.000Z,99.90
2017-09-25T22:49:18.836Z,99.90
2017-09-25T22:51:47.375Z,99.90
2017-09-25T22:54:15.154Z,99.90
2017-09-25T22:56:42.959Z,99.90
2017-09-25T22:59:10.738Z,99.90
2017-09-25T23:01:38.572Z,99.90
2017-09-25T23:04:21.266Z,99.90
2017-09-25T23:06:49.858Z,99.90
2017-09-25T23:09:28.315Z,99.90
2017-09-25T23:11:56.929Z,99.90
2017-09-25T23:14:25.476Z,99.90
2017-09-25T23:16:53.283Z,99.90
2017-09-25T23:19:21.844Z,99.90
2017-09-25T23:21:49.627Z,99.90
2017-09-25T23:24:18.215Z,99.90
2017-09-25T23:26:46.761Z,99.90
2017-09-25T23:29:14.539Z,99.90
2017-09-25T23:31:42.436Z,99.90
2017-09-25T23:34:10.203Z,99.90
2017-09-25T23:36:38.031Z,99.90
2017-09-25T23:39:05.797Z,99.90
2017-09-25T23:41:34.331Z,99.90
2017-09-25T23:44:02.892Z,99.90
2017-09-25T23:46:30.659Z,99.90
2017-09-25T23:48:58.485Z,99.90
2017-09-25T23:51:27.079Z,99.90
2017-09-25T23:53:54.848Z,99.90
2017-09-25T23:56:22.635Z,99.90
2017-09-25T23:58:50.396Z,99.90
